createdAt,value
2019-02-09T00:00:01.174Z,80.13
2019-02-09T00:02:31.565Z,80.14
2019-02-09T00:05:01.684Z,80.38
2019-02-09T00:07:31.815Z,80.30
2019-02-09T00:12:32.387Z,80.36
2019-02-09T00:15:02.530Z,80.51
2019-02-09T00:17:32.662Z,80.44
2019-02-09T00:20:02.767Z,80.68
2019-02-09T00:22:32.880Z,80.61
2019-02-09T00:25:02.974Z,80.54
2019-02-09T00:27:33.169Z,80.87
2019-02-09T00:30:03.266Z,80.95
2019-02-09T00:32:33.546Z,80.76
2019-02-09T00:35:03.755Z,80.85
2019-02-09T00:37:33.890Z,80.70
2019-02-09T00:40:04.810Z,80.22
2019-02-09T00:42:34.909Z,80.21
2019-02-09T00:45:06.555Z,80.54
2019-02-09T00:47:36.646Z,80.93
2019-02-09T00:50:07.809Z,80.71
2019-02-09T00:52:37.911Z,80.80
2019-02-09T00:55:08.943Z,80.92
2019-02-09T00:57:39.048Z,81.32
2019-02-09T01:00:14.122Z,80.98
2019-02-09T01:02:44.219Z,80.79
2019-02-09T01:05:15.505Z,80.79
2019-02-09T01:07:45.611Z,80.58
2019-02-09T01:10:15.842Z,81.44
2019-02-09T01:12:45.953Z,81.15
2019-02-09T01:15:16.508Z,80.94
2019-02-09T01:17:46.627Z,81.04
2019-02-09T01:20:20.012Z,81.14
2019-02-09T01:22:50.149Z,81.37
2019-02-09T01:25:20.270Z,81.25
2019-02-09T01:27:50.386Z,81.36
2019-02-09T01:30:23.258Z,81.09
2019-02-09T01:32:53.374Z,80.83
2019-02-09T01:35:23.790Z,80.44
2019-02-09T01:37:54.000Z,80.83
2019-02-09T01:40:25.475Z,81.17
2019-02-09T01:42:55.802Z,81.00
2019-02-09T01:45:30.436Z,81.29
2019-02-09T01:48:01.034Z,81.08
2019-02-09T01:50:31.973Z,80.68
2019-02-09T01:53:02.374Z,80.53
2019-02-09T01:55:32.494Z,80.56
2019-02-09T01:58:02.632Z,80.67
2019-02-09T02:00:34.227Z,80.35
2019-02-09T02:03:04.756Z,80.57
2019-02-09T02:05:34.870Z,80.34
2019-02-09T02:08:05.394Z,80.24
2019-02-09T02:10:37.844Z,80.57
2019-02-09T02:13:09.460Z,80.86
2019-02-09T02:15:40.507Z,80.68
2019-02-09T02:18:11.119Z,80.85
2019-02-09T02:20:41.250Z,81.13
2019-02-09T02:23:11.402Z,81.14
2019-02-09T02:25:41.530Z,80.73
2019-02-09T02:28:11.633Z,81.00
2019-02-09T02:30:41.727Z,80.42
2019-02-09T02:33:13.656Z,80.44
2019-02-09T02:35:43.782Z,80.60
2019-02-09T02:38:13.951Z,81.08
2019-02-09T02:40:44.424Z,80.96
2019-02-09T02:43:14.559Z,80.54
2019-02-09T02:45:44.668Z,80.17
2019-02-09T02:48:14.774Z,80.32
2019-02-09T02:50:44.872Z,80.17
2019-02-09T02:53:16.519Z,80.41
2019-02-09T02:55:46.868Z,80.55
2019-02-09T02:58:17.944Z,80.44
2019-02-09T03:00:48.056Z,80.55
2019-02-09T03:03:18.150Z,80.80
2019-02-09T03:05:48.278Z,81.01
2019-02-09T03:08:18.413Z,80.63
2019-02-09T03:10:48.533Z,80.72
2019-02-09T03:13:18.632Z,80.53
2019-02-09T03:15:48.950Z,80.50
2019-02-09T03:18:19.067Z,80.84
2019-02-09T03:20:49.187Z,80.50
2019-02-09T03:23:19.294Z,80.50
2019-02-09T03:25:50.847Z,80.56
2019-02-09T03:28:20.962Z,80.65
2019-02-09T03:30:52.038Z,80.39
2019-02-09T03:33:22.161Z,80.38
2019-02-09T03:35:52.252Z,80.49
2019-02-09T03:38:22.372Z,80.50
2019-02-09T03:40:52.459Z,80.33
2019-02-09T03:43:22.587Z,80.43
2019-02-09T03:45:52.681Z,80.12
2019-02-09T03:48:22.808Z,80.30
2019-02-09T03:50:52.902Z,80.12
2019-02-09T03:53:23.031Z,80.08
2019-02-09T03:55:53.128Z,80.18
2019-02-09T03:58:23.241Z,80.00
2019-02-09T04:00:55.440Z,80.10
2019-02-09T04:03:26.178Z,79.84
2019-02-09T04:05:57.238Z,79.76
2019-02-09T04:08:27.348Z,80.11
2019-02-09T04:10:57.436Z,80.26
2019-02-09T04:13:27.552Z,80.20
2019-02-09T04:15:57.655Z,80.18
2019-02-09T04:18:28.078Z,80.14
2019-02-09T04:20:58.195Z,80.36
2019-02-09T04:23:28.328Z,80.55
2019-02-09T04:25:58.514Z,80.60
2019-02-09T04:28:28.615Z,80.41
2019-02-09T04:31:06.149Z,80.57
2019-02-09T04:33:30.635Z,80.53
2019-02-09T04:36:00.738Z,80.39
2019-02-09T04:38:30.846Z,80.42
2019-02-09T04:41:01.034Z,80.33
2019-02-09T04:43:31.123Z,80.37
2019-02-09T04:46:01.252Z,80.45
2019-02-09T04:48:31.374Z,80.25
2019-02-09T04:51:01.537Z,79.82
2019-02-09T04:53:32.264Z,79.70
2019-02-09T04:56:02.374Z,80.13
2019-02-09T04:58:32.554Z,80.42
2019-02-09T05:01:02.659Z,79.91
2019-02-09T05:03:32.802Z,80.06
2019-02-09T05:06:02.936Z,80.67
2019-02-09T05:08:33.074Z,80.35
2019-02-09T05:11:03.263Z,80.06
2019-02-09T05:13:33.372Z,79.99
2019-02-09T05:16:03.497Z,79.97
2019-02-09T05:18:33.683Z,79.76
2019-02-09T05:21:03.803Z,80.39
2019-02-09T05:23:33.914Z,80.43
2019-02-09T05:26:04.028Z,80.49
2019-02-09T05:28:34.174Z,80.26
2019-02-09T05:31:04.272Z,80.10
2019-02-09T05:33:34.384Z,80.23
2019-02-09T05:36:04.709Z,80.43
2019-02-09T05:38:34.877Z,80.33
2019-02-09T05:41:04.986Z,80.31
2019-02-09T05:43:35.124Z,80.49
2019-02-09T05:46:06.031Z,80.40
2019-02-09T05:48:36.131Z,80.21
2019-02-09T05:51:07.711Z,79.91
2019-02-09T05:53:37.825Z,80.08
2019-02-09T05:56:08.232Z,79.90
2019-02-09T05:58:38.348Z,79.76
2019-02-09T06:01:08.461Z,79.72
2019-02-09T06:03:40.256Z,79.46
2019-02-09T06:06:10.394Z,79.60
2019-02-09T06:08:40.501Z,79.47
2019-02-09T06:11:10.721Z,79.48
2019-02-09T06:13:40.823Z,79.53
2019-02-09T06:16:10.919Z,79.61
2019-02-09T06:18:41.205Z,79.50
2019-02-09T06:21:11.343Z,79.57
2019-02-09T06:23:41.441Z,79.65
2019-02-09T06:26:11.540Z,79.52
2019-02-09T06:28:41.795Z,79.46
2019-02-09T06:31:11.964Z,79.30
2019-02-09T06:33:42.069Z,79.70
2019-02-09T06:36:13.626Z,79.72
2019-02-09T06:38:43.758Z,79.61
2019-02-09T06:41:13.858Z,79.79
2019-02-09T06:43:43.971Z,79.69
2019-02-09T06:46:15.905Z,79.39
2019-02-09T06:48:46.227Z,79.07
2019-02-09T06:51:16.346Z,79.13
2019-02-09T06:53:46.497Z,79.65
2019-02-09T06:56:16.615Z,79.52
2019-02-09T06:58:46.774Z,79.38
2019-02-09T07:01:17.272Z,79.31
2019-02-09T07:03:47.406Z,79.10
2019-02-09T07:06:18.727Z,79.01
2019-02-09T07:08:48.846Z,79.25
2019-02-09T07:11:19.048Z,79.27
2019-02-09T07:13:49.149Z,79.01
2019-02-09T07:16:19.303Z,79.41
2019-02-09T07:18:49.421Z,78.96
2019-02-09T07:21:19.545Z,78.90
2019-02-09T07:23:49.673Z,78.76
2019-02-09T07:26:19.782Z,79.08
2019-02-09T07:28:49.893Z,78.91
2019-02-09T07:31:20.001Z,79.12
2019-02-09T07:33:50.120Z,79.17
2019-02-09T07:36:20.242Z,79.15
2019-02-09T07:38:50.391Z,79.20
2019-02-09T07:41:20.504Z,79.35
2019-02-09T07:43:51.489Z,79.09
2019-02-09T07:46:21.642Z,79.38
2019-02-09T07:48:52.017Z,79.10
2019-02-09T07:51:22.381Z,78.98
2019-02-09T07:53:52.520Z,79.12
2019-02-09T07:56:22.619Z,78.86
2019-02-09T07:58:52.835Z,78.79
2019-02-09T08:01:22.938Z,79.05
2019-02-09T08:03:53.136Z,78.99
2019-02-09T08:06:23.254Z,78.82
2019-02-09T08:08:53.370Z,78.81
2019-02-09T08:11:23.487Z,78.79
2019-02-09T08:13:53.592Z,78.92
2019-02-09T08:16:23.702Z,79.06
2019-02-09T08:18:53.952Z,78.97
2019-02-09T08:21:24.139Z,78.86
2019-02-09T08:23:54.333Z,78.77
2019-02-09T08:26:25.512Z,79.05
2019-02-09T08:28:55.629Z,78.95
2019-02-09T08:31:25.849Z,78.92
2019-02-09T08:33:55.991Z,79.17
2019-02-09T08:36:27.196Z,78.97
2019-02-09T08:38:57.329Z,78.95
2019-02-09T08:41:27.442Z,78.82
2019-02-09T08:43:57.578Z,78.86
2019-02-09T08:46:27.712Z,78.74
2019-02-09T08:48:57.995Z,78.77
2019-02-09T08:51:28.105Z,78.79
2019-02-09T08:53:58.297Z,78.68
2019-02-09T08:56:28.494Z,78.72
2019-02-09T08:58:58.617Z,78.63
2019-02-09T09:01:28.726Z,78.72
2019-02-09T09:03:58.824Z,78.77
2019-02-09T09:06:29.027Z,78.57
2019-02-09T09:08:59.157Z,78.83
2019-02-09T09:11:29.303Z,78.67
2019-02-09T09:13:59.413Z,78.74
2019-02-09T09:16:29.535Z,78.92
2019-02-09T09:18:59.715Z,79.23
2019-02-09T09:21:29.832Z,79.01
2019-02-09T09:24:00.081Z,78.76
2019-02-09T09:26:30.599Z,78.75
2019-02-09T09:29:00.726Z,78.83
2019-02-09T09:31:32.443Z,79.49
2019-02-09T09:34:02.753Z,79.74
2019-02-09T09:36:32.863Z,79.47
2019-02-09T09:39:03.848Z,79.63
2019-02-09T09:41:34.176Z,79.76
2019-02-09T09:44:04.488Z,79.86
2019-02-09T09:46:34.665Z,79.60
2019-02-09T09:49:04.845Z,79.36
2019-02-09T09:51:35.348Z,79.18
2019-02-09T09:54:05.765Z,79.58
2019-02-09T09:56:35.867Z,79.80
2019-02-09T09:59:06.012Z,79.77
2019-02-09T10:01:36.954Z,79.52
2019-02-09T10:04:07.319Z,79.51
2019-02-09T10:06:37.772Z,79.62
2019-02-09T10:09:08.882Z,79.79
2019-02-09T10:11:39.096Z,79.50
2019-02-09T10:14:09.276Z,79.61
2019-02-09T10:16:39.387Z,79.36
2019-02-09T10:19:09.677Z,79.47
2019-02-09T10:21:39.803Z,79.66
2019-02-09T10:24:09.927Z,79.45
2019-02-09T10:26:40.076Z,79.09
2019-02-09T10:29:10.190Z,78.92
2019-02-09T10:31:40.348Z,79.02
2019-02-09T10:34:10.474Z,78.91
2019-02-09T10:36:41.906Z,79.35
2019-02-09T10:39:13.125Z,79.33
2019-02-09T10:41:43.515Z,78.93
2019-02-09T10:44:13.629Z,78.69
2019-02-09T10:46:44.133Z,78.53
2019-02-09T10:49:15.255Z,78.98
2019-02-09T10:51:45.409Z,79.00
2019-02-09T10:54:15.500Z,79.07
2019-02-09T10:56:45.713Z,79.57
2019-02-09T10:59:15.843Z,79.53
2019-02-09T11:01:46.131Z,79.48
2019-02-09T11:04:16.852Z,79.32
2019-02-09T11:06:47.189Z,79.02
2019-02-09T11:09:21.599Z,79.31
2019-02-09T11:11:51.814Z,79.20
2019-02-09T11:14:22.082Z,79.17
2019-02-09T11:16:52.265Z,79.02
2019-02-09T11:19:22.532Z,78.77
2019-02-09T11:21:52.635Z,78.98
2019-02-09T11:24:22.846Z,78.66
2019-02-09T11:26:52.967Z,78.92
2019-02-09T11:29:23.425Z,78.97
2019-02-09T11:31:53.585Z,79.04
2019-02-09T11:34:23.688Z,78.94
2019-02-09T11:36:53.829Z,78.85
2019-02-09T11:39:26.907Z,78.80
2019-02-09T11:41:57.004Z,78.68
2019-02-09T11:44:27.173Z,78.97
2019-02-09T11:46:57.291Z,78.82
2019-02-09T11:49:27.454Z,78.86
2019-02-09T11:51:57.908Z,78.67
2019-02-09T11:54:28.030Z,78.99
2019-02-09T11:56:58.133Z,78.88
2019-02-09T11:59:28.372Z,78.74
2019-02-09T12:01:58.466Z,78.72
2019-02-09T12:04:28.610Z,78.59
2019-02-09T12:06:58.689Z,78.61
2019-02-09T12:09:28.786Z,78.91
2019-02-09T12:11:58.904Z,78.82
2019-02-09T12:14:29.004Z,78.65
2019-02-09T12:16:59.120Z,78.58
2019-02-09T12:19:29.337Z,78.74
2019-02-09T12:21:59.449Z,78.77
2019-02-09T12:24:29.566Z,78.48
2019-02-09T12:26:59.636Z,78.86
2019-02-09T12:29:29.739Z,78.70
2019-02-09T12:31:59.883Z,78.70
2019-02-09T12:34:30.048Z,78.54
2019-02-09T12:37:00.215Z,78.34
2019-02-09T12:39:30.365Z,78.28
2019-02-09T12:42:00.448Z,78.41
2019-02-09T12:44:30.562Z,78.37
2019-02-09T12:47:00.724Z,78.30
2019-02-09T12:49:30.843Z,78.72
2019-02-09T12:52:00.955Z,78.67
2019-02-09T12:54:31.171Z,78.73
2019-02-09T12:57:01.301Z,78.73
2019-02-09T12:59:31.480Z,78.93
2019-02-09T13:02:01.616Z,78.82
2019-02-09T13:04:31.705Z,78.71
2019-02-09T13:07:01.818Z,78.81
2019-02-09T13:09:31.919Z,78.58
2019-02-09T13:12:02.523Z,78.57
2019-02-09T13:14:32.744Z,78.52
2019-02-09T13:17:03.304Z,78.44
2019-02-09T13:19:33.442Z,78.48
2019-02-09T13:22:03.652Z,78.33
2019-02-09T13:24:33.753Z,78.23
2019-02-09T13:27:04.677Z,78.24
2019-02-09T13:29:34.913Z,78.22
2019-02-09T13:32:05.343Z,78.27
2019-02-09T13:34:35.565Z,78.20
2019-02-09T13:37:05.746Z,78.08
2019-02-09T13:39:36.013Z,77.97
2019-02-09T13:42:06.135Z,78.04
2019-02-09T13:44:36.242Z,77.90
2019-02-09T13:47:06.351Z,78.04
2019-02-09T13:49:36.469Z,78.30
2019-02-09T13:52:06.656Z,78.20
2019-02-09T13:54:36.806Z,78.41
2019-02-09T13:57:06.921Z,78.05
2019-02-09T13:59:37.057Z,77.76
2019-02-09T14:02:07.239Z,77.67
2019-02-09T14:04:37.368Z,77.71
2019-02-09T14:07:07.624Z,77.58
2019-02-09T14:09:37.728Z,77.49
2019-02-09T14:12:07.844Z,77.55
2019-02-09T14:14:38.026Z,77.39
2019-02-09T14:17:08.245Z,77.45
2019-02-09T14:19:38.401Z,77.51
2019-02-09T14:22:08.502Z,77.26
2019-02-09T14:24:38.603Z,77.23
2019-02-09T14:27:08.791Z,77.24
2019-02-09T14:29:38.891Z,77.22
2019-02-09T14:32:09.054Z,77.01
2019-02-09T14:34:39.233Z,76.95
2019-02-09T14:37:09.335Z,77.18
2019-02-09T14:39:39.447Z,77.13
2019-02-09T14:42:09.558Z,76.81
2019-02-09T14:44:39.664Z,76.72
2019-02-09T14:47:09.744Z,77.12
2019-02-09T14:49:39.855Z,76.98
2019-02-09T14:52:09.997Z,76.76
2019-02-09T14:54:40.121Z,76.85
2019-02-09T14:57:10.223Z,76.77
2019-02-09T14:59:40.337Z,77.04
2019-02-09T15:02:12.408Z,77.19
2019-02-09T15:04:42.583Z,77.07
2019-02-09T15:07:13.784Z,76.98
2019-02-09T15:09:43.937Z,76.84
2019-02-09T15:12:14.083Z,77.08
2019-02-09T15:14:44.361Z,76.87
2019-02-09T15:17:14.422Z,76.78
2019-02-09T15:19:44.603Z,76.78
2019-02-09T15:22:14.705Z,76.97
2019-02-09T15:24:44.827Z,76.99
2019-02-09T15:27:14.937Z,77.09
2019-02-09T15:29:45.065Z,77.40
2019-02-09T15:32:15.210Z,77.45
2019-02-09T15:34:45.329Z,77.41
2019-02-09T15:37:15.448Z,77.64
2019-02-09T15:39:45.534Z,77.64
2019-02-09T15:42:16.154Z,77.72
2019-02-09T15:44:46.368Z,77.53
2019-02-09T15:47:16.451Z,77.49
2019-02-09T15:49:46.604Z,77.54
2019-02-09T15:52:16.690Z,77.58
2019-02-09T15:54:46.787Z,77.96
2019-02-09T15:57:16.891Z,78.32
2019-02-09T15:59:47.000Z,78.60
2019-02-09T16:02:17.102Z,78.51
2019-02-09T16:04:47.206Z,78.25
2019-02-09T16:07:17.303Z,78.37
2019-02-09T16:09:47.426Z,78.42
2019-02-09T16:12:17.547Z,78.28
2019-02-09T16:14:47.661Z,77.98
2019-02-09T16:17:17.805Z,78.22
2019-02-09T16:19:47.965Z,78.00
2019-02-09T16:22:18.085Z,77.81
2019-02-09T16:24:48.241Z,78.76
2019-02-09T16:27:18.326Z,78.51
2019-02-09T16:29:48.455Z,79.38
2019-02-09T16:32:18.618Z,78.94
2019-02-09T16:34:48.745Z,78.77
2019-02-09T16:37:18.847Z,78.43
2019-02-09T16:39:48.967Z,78.71
2019-02-09T16:42:19.077Z,78.43
2019-02-09T16:44:49.167Z,78.79
2019-02-09T16:47:19.267Z,79.02
2019-02-09T16:49:49.545Z,78.98
2019-02-09T16:52:19.647Z,78.94
2019-02-09T16:54:49.813Z,79.30
2019-02-09T16:57:24.459Z,79.13
2019-02-09T16:59:55.148Z,79.22
2019-02-09T17:02:25.251Z,79.51
2019-02-09T17:04:55.401Z,78.98
2019-02-09T17:07:25.524Z,79.42
2019-02-09T17:09:55.641Z,79.29
2019-02-09T17:12:25.824Z,79.51
2019-02-09T17:14:55.919Z,79.14
2019-02-09T17:17:26.015Z,79.19
2019-02-09T17:19:56.177Z,79.07
2019-02-09T17:22:26.291Z,79.72
2019-02-09T17:24:56.413Z,79.63
2019-02-09T17:27:26.958Z,79.55
2019-02-09T17:29:57.106Z,79.34
2019-02-09T17:32:34.753Z,79.13
2019-02-09T17:35:07.351Z,78.87
2019-02-09T17:37:37.845Z,78.76
2019-02-09T17:40:10.217Z,78.79
2019-02-09T17:42:41.952Z,79.12
2019-02-09T17:45:34.627Z,79.33
2019-02-09T17:48:06.935Z,79.92
2019-02-09T17:50:38.984Z,79.67
2019-02-09T17:53:09.089Z,79.75
2019-02-09T17:55:39.205Z,79.57
2019-02-09T17:58:10.900Z,79.94
2019-02-09T18:01:06.554Z,79.88
2019-02-09T18:03:39.437Z,80.31
2019-02-09T18:06:14.811Z,80.05
2019-02-09T18:08:44.913Z,79.96
2019-02-09T18:11:15.025Z,80.22
2019-02-09T18:13:45.126Z,79.78
2019-02-09T18:16:15.241Z,79.64
2019-02-09T18:18:45.338Z,79.70
2019-02-09T18:21:15.515Z,80.42
2019-02-09T18:23:45.719Z,80.63
2019-02-09T18:26:15.790Z,80.49
2019-02-09T18:28:46.179Z,80.59
2019-02-09T18:31:16.290Z,80.31
2019-02-09T18:33:46.458Z,80.50
2019-02-09T18:36:16.569Z,80.80
2019-02-09T18:38:49.177Z,80.61
2019-02-09T18:41:19.306Z,80.61
2019-02-09T18:43:49.411Z,80.64
2019-02-09T18:46:19.535Z,80.62
2019-02-09T18:48:49.630Z,80.85
2019-02-09T18:51:19.767Z,80.89
2019-02-09T18:53:49.873Z,80.74
2019-02-09T18:56:20.009Z,80.69
2019-02-09T18:58:50.117Z,80.60
2019-02-09T19:01:20.370Z,80.65
2019-02-09T19:03:50.586Z,80.91
2019-02-09T19:06:20.689Z,80.59
2019-02-09T19:08:50.789Z,80.99
2019-02-09T19:11:20.983Z,81.07
2019-02-09T19:13:51.099Z,80.88
2019-02-09T19:16:21.441Z,80.96
2019-02-09T19:18:51.610Z,80.64
2019-02-09T19:21:21.778Z,80.72
2019-02-09T19:23:51.887Z,80.75
2019-02-09T19:26:21.969Z,80.12
2019-02-09T19:28:52.065Z,80.29
2019-02-09T19:31:22.186Z,80.12
2019-02-09T19:33:53.332Z,79.82
2019-02-09T19:36:23.462Z,79.93
2019-02-09T19:38:53.569Z,79.96
2019-02-09T19:41:23.687Z,79.86
2019-02-09T19:43:53.783Z,79.76
2019-02-09T19:46:23.994Z,79.88
2019-02-09T19:48:54.087Z,80.18
2019-02-09T19:51:24.181Z,79.99
2019-02-09T19:53:54.356Z,80.03
2019-02-09T19:56:24.449Z,79.64
2019-02-09T19:58:54.645Z,79.85
2019-02-09T20:01:24.735Z,79.69
2019-02-09T20:03:54.847Z,79.80
2019-02-09T20:06:25.001Z,79.86
2019-02-09T20:08:55.083Z,80.09
2019-02-09T20:11:25.180Z,79.95
2019-02-09T20:13:55.305Z,79.95
2019-02-09T20:16:25.430Z,79.83
2019-02-09T20:18:56.523Z,79.76
2019-02-09T20:21:26.717Z,79.71
2019-02-09T20:23:56.816Z,79.55
2019-02-09T20:26:27.921Z,79.60
2019-02-09T20:28:59.071Z,79.51
2019-02-09T20:31:29.269Z,79.24
2019-02-09T20:33:59.978Z,79.40
2019-02-09T20:36:30.143Z,79.64
2019-02-09T20:39:04.610Z,79.89
2019-02-09T20:41:33.733Z,79.95
2019-02-09T20:44:04.084Z,79.91
2019-02-09T20:46:34.319Z,80.08
2019-02-09T20:49:04.555Z,80.08
2019-02-09T20:51:34.673Z,79.93
2019-02-09T20:54:05.219Z,79.84
2019-02-09T20:56:35.700Z,80.49
2019-02-09T20:59:05.938Z,80.42
2019-02-09T21:01:36.249Z,80.52
2019-02-09T21:04:06.539Z,80.27
2019-02-09T21:06:36.647Z,80.68
2019-02-09T21:09:08.850Z,80.44
2019-02-09T21:11:38.950Z,80.53
2019-02-09T21:14:09.097Z,80.62
2019-02-09T21:16:39.184Z,80.62
2019-02-09T21:19:09.438Z,80.50
2019-02-09T21:21:39.599Z,80.33
2019-02-09T21:24:09.742Z,80.01
2019-02-09T21:26:39.839Z,80.03
2019-02-09T21:29:09.954Z,80.07
2019-02-09T21:31:40.052Z,79.71
2019-02-09T21:34:10.330Z,79.67
2019-02-09T21:36:40.543Z,79.62
2019-02-09T21:39:10.914Z,79.46
2019-02-09T21:41:41.290Z,79.38
2019-02-09T21:44:11.576Z,79.02
2019-02-09T21:46:41.680Z,79.13
2019-02-09T21:49:11.800Z,78.98
2019-02-09T21:51:41.907Z,78.74
2019-02-09T21:54:12.027Z,78.94
2019-02-09T21:56:42.116Z,78.72
2019-02-09T21:59:12.312Z,78.57
2019-02-09T22:01:42.378Z,78.81
2019-02-09T22:04:12.491Z,78.83
2019-02-09T22:06:42.616Z,78.75
2019-02-09T22:09:12.842Z,78.74
2019-02-09T22:11:43.073Z,78.71
2019-02-09T22:14:13.528Z,78.52
2019-02-09T22:16:44.182Z,78.48
2019-02-09T22:19:14.414Z,78.62
2019-02-09T22:21:44.999Z,78.49
2019-02-09T22:24:15.498Z,78.22
2019-02-09T22:26:45.597Z,78.49
2019-02-09T22:29:16.815Z,78.46
2019-02-09T22:31:46.965Z,78.37
2019-02-09T22:34:17.074Z,78.29
2019-02-09T22:36:47.337Z,78.61
2019-02-09T22:39:17.476Z,78.48
2019-02-09T22:41:49.258Z,78.55
2019-02-09T22:44:19.777Z,78.50
2019-02-09T22:46:50.853Z,78.24
2019-02-09T22:49:20.950Z,78.20
2019-02-09T22:51:51.169Z,78.31
2019-02-09T22:54:21.383Z,78.30
2019-02-09T22:56:51.738Z,78.17
2019-02-09T22:59:21.929Z,78.18
2019-02-09T23:01:52.415Z,77.95
2019-02-09T23:04:53.491Z,77.97
2019-02-09T23:07:34.538Z,77.78
2019-02-09T23:10:13.656Z,77.75
2019-02-09T23:12:48.637Z,77.67
2019-02-09T23:15:15.702Z,77.77
2019-02-09T23:17:45.857Z,77.77
2019-02-09T23:20:15.951Z,77.76
2019-02-09T23:22:46.066Z,77.73
2019-02-09T23:25:16.163Z,77.72
2019-02-09T23:27:46.327Z,77.64
2019-02-09T23:30:16.538Z,77.55
2019-02-09T23:32:46.647Z,77.59
2019-02-09T23:35:16.763Z,77.74
2019-02-09T23:37:46.873Z,77.99
2019-02-09T23:40:17.003Z,77.96
2019-02-09T23:42:47.117Z,78.04
2019-02-09T23:45:17.223Z,78.15
2019-02-09T23:47:48.153Z,77.74
2019-02-09T23:50:18.279Z,77.93
2019-02-09T23:52:48.422Z,77.98
2019-02-09T23:55:18.509Z,77.85
2019-02-09T23:57:49.081Z,77.37
